Time;durP1;ratioP1;P1;durP2;ratioP2;P2;SDS_P1;SDS_P2;PMS_P1;PMS_P2;Temp;Humidity;BMP_temperature;BMP_pressure;BME280_temperature;BME280_humidity;BME280_pressure;Samples;Min_cycle;Max_cycle;Signal;HPM_P1;HPM_P2
2022/10/03 00:01:16;;;;;;;;;;;20.10;70.00;;;;;;4511070;31;20029;-73
2022/10/03 00:03:50;;;;;;;;;;;20.10;70.00;;;;;;4513015;31;20154;-73
2022/10/03 00:06:22;;;;;;;;;;;20.10;70.00;;;;;;4512601;31;20032;-72
2022/10/03 00:09:07;;;;;;;;;;;20.10;70.10;;;;;;4514255;31;20570;-73
2022/10/03 00:11:46;;;;;;;;;;;20.10;70.00;;;;;;4518358;31;20021;-73
2022/10/03 00:14:29;;;;;;;;;;;20.10;70.00;;;;;;4516832;31;20048;-73
2022/10/03 00:17:01;;;;;;;;;;;20.10;70.00;;;;;;4509426;31;20033;-73
2022/10/03 00:19:30;;;;;;;;;;;20.10;70.00;;;;;;4510304;31;20199;-72
2022/10/03 00:22:09;;;;;;;;;;;20.10;70.00;;;;;;4502577;31;20040;-73
2022/10/03 00:24:38;;;;;;;;;;;20.10;70.00;;;;;;4514370;31;20067;-73
2022/10/03 00:27:33;;;;;;;;;;;20.00;70.00;;;;;;4517795;31;20055;-72
2022/10/03 00:30:03;;;;;;;;;;;20.00;70.00;;;;;;4475947;31;20021;-73
2022/10/03 00:32:35;;;;;;;;;;;20.10;70.00;;;;;;4518293;31;20123;-72
2022/10/03 00:35:20;;;;;;;;;;;20.00;70.00;;;;;;4514482;31;20632;-73
2022/10/03 00:38:06;;;;;;;;;;;20.00;70.00;;;;;;4514120;31;20088;-73
2022/10/03 00:40:50;;;;;;;;;;;20.00;70.00;;;;;;4500433;31;20021;-72
2022/10/03 00:43:22;;;;;;;;;;;20.00;70.00;;;;;;4518056;31;20016;-73
2022/10/03 00:45:54;;;;;;;;;;;20.00;70.00;;;;;;4517023;31;20111;-73
2022/10/03 00:48:23;;;;;;;;;;;20.00;70.00;;;;;;4516642;31;20167;-73
2022/10/03 00:51:02;;;;;;;;;;;20.00;70.00;;;;;;4517264;31;20516;-72
2022/10/03 00:53:31;;;;;;;;;;;20.00;70.00;;;;;;4517411;31;20033;-72
2022/10/03 00:56:16;;;;;;;;;;;20.00;70.00;;;;;;4518245;31;20663;-73
2022/10/03 00:58:44;;;;;;;;;;;20.00;70.00;;;;;;4517867;31;20029;-72
2022/10/03 01:01:22;;;;;;;;;;;20.00;70.00;;;;;;4517602;31;20159;-72
2022/10/03 01:03:54;;;;;;;;;;;20.00;70.00;;;;;;4530711;31;20052;-72
2022/10/03 01:06:31;;;;;;;;;;;20.00;70.00;;;;;;4517671;31;20031;-72
2022/10/03 01:08:57;;;;;;;;;;;20.00;70.00;;;;;;4517983;31;20033;-72
2022/10/03 01:11:29;;;;;;;;;;;20.00;70.00;;;;;;4516789;31;20030;-72
2022/10/03 01:14:07;;;;;;;;;;;20.00;70.20;;;;;;4517663;31;20032;-73
2022/10/03 01:16:43;;;;;;;;;;;19.90;70.00;;;;;;4518497;31;20145;-73
2022/10/03 01:19:27;;;;;;;;;;;19.90;70.00;;;;;;4517421;31;20017;-72
2022/10/03 01:21:53;;;;;;;;;;;19.90;69.90;;;;;;4514691;31;20029;-73
2022/10/03 01:24:19;;;;;;;;;;;19.90;70.00;;;;;;4514052;31;20051;-73
2022/10/03 01:26:44;;;;;;;;;;;19.90;69.90;;;;;;4515209;31;20017;-73
2022/10/03 01:32:16;;;;;;;;;;;19.90;70.00;;;;;;4514717;31;20044;-73
2022/10/03 01:34:49;;;;;;;;;;;19.90;69.90;;;;;;4515291;31;20032;-73
2022/10/03 01:37:22;;;;;;;;;;;19.90;70.00;;;;;;4515377;31;20033;-73
2022/10/03 01:40:07;;;;;;;;;;;19.90;69.90;;;;;;4514728;31;20033;-73
2022/10/03 01:42:33;;;;;;;;;;;19.90;70.00;;;;;;4515803;31;20041;-72
2022/10/03 01:45:00;;;;;;;;;;;19.90;70.00;;;;;;4514472;31;20013;-72
2022/10/03 01:47:28;;;;;;;;;;;19.90;70.00;;;;;;4515142;31;20047;-73
2022/10/03 01:50:03;;;;;;;;;;;19.90;69.90;;;;;;4514397;31;20025;-72
2022/10/03 01:52:46;;;;;;;;;;;19.90;69.90;;;;;;4514712;31;20078;-73
2022/10/03 01:55:42;;;;;;;;;;;19.90;69.90;;;;;;4514690;31;20049;-73
2022/10/03 01:58:26;;;;;;;;;;;19.90;70.00;;;;;;4482785;31;20048;-72
2022/10/03 02:00:55;;;;;;;;;;;19.90;70.00;;;;;;4498628;31;20033;-73
2022/10/03 02:03:33;;;;;;;;;;;19.90;70.00;;;;;;4512073;31;20040;-72
2022/10/03 02:06:02;;;;;;;;;;;19.80;70.00;;;;;;4514219;31;20102;-73
2022/10/03 02:08:47;;;;;;;;;;;19.80;69.90;;;;;;4515090;31;20041;-73
2022/10/03 02:11:33;;;;;;;;;;;19.80;70.00;;;;;;4514825;31;20085;-73
2022/10/03 02:13:58;;;;;;;;;;;19.80;69.90;;;;;;4498552;31;20044;-73
2022/10/03 02:16:27;;;;;;;;;;;19.80;70.00;;;;;;4508479;31;20017;-72
2022/10/03 02:19:04;;;;;;;;;;;19.80;69.90;;;;;;4514080;31;20068;-72
2022/10/03 02:21:31;;;;;;;;;;;19.80;70.00;;;;;;4513610;31;20036;-73
2022/10/03 02:24:03;;;;;;;;;;;19.80;70.00;;;;;;4514237;31;20151;-73
2022/10/03 02:26:47;;;;;;;;;;;19.80;69.90;;;;;;4513241;31;20048;-73
2022/10/03 02:29:32;;;;;;;;;;;19.80;69.90;;;;;;4524105;31;20076;-73
2022/10/03 02:32:07;;;;;;;;;;;19.80;69.90;;;;;;4512538;31;20091;-72
2022/10/03 02:34:52;;;;;;;;;;;19.80;70.00;;;;;;4513358;31;20562;-73
2022/10/03 02:37:21;;;;;;;;;;;19.80;69.90;;;;;;4514365;31;20157;-73
2022/10/03 02:39:46;;;;;;;;;;;19.80;69.90;;;;;;4513844;31;20036;-73
2022/10/03 02:42:16;;;;;;;;;;;19.80;69.90;;;;;;4514907;31;20041;-72
2022/10/03 02:45:02;;;;;;;;;;;19.80;69.90;;;;;;4513476;31;20041;-72
2022/10/03 02:47:36;;;;;;;;;;;19.80;69.90;;;;;;4489265;31;20033;-73
2022/10/03 02:50:18;;;;;;;;;;;19.80;69.90;;;;;;4502758;31;20021;-73
2022/10/03 02:53:02;;;;;;;;;;;19.80;70.00;;;;;;4513568;31;20040;-72
2022/10/03 02:55:35;;;;;;;;;;;19.80;69.90;;;;;;4514755;31;20144;-72
2022/10/03 02:58:26;;;;;;;;;;;19.70;69.80;;;;;;4513607;31;20040;-72
2022/10/03 03:01:01;;;;;;;;;;;19.70;69.80;;;;;;4512649;31;20151;-72
2022/10/03 03:03:59;;;;;;;;;;;19.70;69.90;;;;;;4514266;31;20458;-73
2022/10/03 03:06:28;;;;;;;;;;;19.70;69.90;;;;;;4487746;31;20025;-72
2022/10/03 03:08:53;;;;;;;;;;;19.70;69.90;;;;;;4503560;31;20042;-73
2022/10/03 03:11:29;;;;;;;;;;;19.70;69.80;;;;;;4513760;31;20173;-72
2022/10/03 03:14:13;;;;;;;;;;;19.70;69.90;;;;;;4497664;31;20033;-72
2022/10/03 03:16:58;;;;;;;;;;;19.70;69.90;;;;;;4509237;31;20106;-72
2022/10/03 03:19:32;;;;;;;;;;;19.70;69.90;;;;;;4513529;31;20032;-72
2022/10/03 03:22:05;;;;;;;;;;;19.70;69.90;;;;;;4513352;31;20484;-73
2022/10/03 03:24:46;;;;;;;;;;;19.70;69.90;;;;;;4512723;31;20186;-73
2022/10/03 03:27:31;;;;;;;;;;;19.70;69.90;;;;;;4511737;31;20512;-72
2022/10/03 03:29:56;;;;;;;;;;;19.70;69.90;;;;;;4511904;31;20043;-73
2022/10/03 03:32:29;;;;;;;;;;;19.70;69.90;;;;;;4511301;31;20024;-72
2022/10/03 03:35:05;;;;;;;;;;;19.70;69.90;;;;;;4514172;31;20061;-72
2022/10/03 03:37:30;;;;;;;;;;;19.70;69.90;;;;;;4513547;31;20039;-72
2022/10/03 03:39:56;;;;;;;;;;;19.70;69.90;;;;;;4511859;31;20024;-73
2022/10/03 03:42:33;;;;;;;;;;;19.70;69.80;;;;;;4514058;31;20017;-72
2022/10/03 03:45:02;;;;;;;;;;;19.70;69.90;;;;;;4512542;31;20033;-72
2022/10/03 03:47:43;;;;;;;;;;;19.70;69.90;;;;;;4513440;31;20024;-72
2022/10/03 03:50:21;;;;;;;;;;;19.70;69.90;;;;;;4509419;31;20448;-72
2022/10/03 03:52:51;;;;;;;;;;;19.60;69.80;;;;;;4508620;31;20024;-72
2022/10/03 03:55:32;;;;;;;;;;;19.60;69.90;;;;;;4512966;31;20029;-72
2022/10/03 03:58:04;;;;;;;;;;;19.60;69.80;;;;;;4512815;31;20155;-72
2022/10/03 04:00:41;;;;;;;;;;;19.60;69.80;;;;;;4512047;31;20060;-72
2022/10/03 04:03:20;;;;;;;;;;;19.60;69.80;;;;;;4513161;31;20399;-73
2022/10/03 04:05:45;;;;;;;;;;;19.60;69.80;;;;;;4512749;31;20079;-72
2022/10/03 04:08:29;;;;;;;;;;;19.60;69.90;;;;;;4512476;31;20323;-73
2022/10/03 04:10:54;;;;;;;;;;;19.60;69.80;;;;;;4512923;31;20028;-72
2022/10/03 04:13:28;;;;;;;;;;;19.60;69.80;;;;;;4512950;31;20038;-73
2022/10/03 04:16:06;;;;;;;;;;;19.60;69.80;;;;;;4512259;31;20036;-72
2022/10/03 04:21:19;;;;;;;;;;;19.60;69.80;;;;;;4513328;31;20086;-73
2022/10/03 04:23:51;;;;;;;;;;;19.60;69.80;;;;;;4511618;31;20032;-72
2022/10/03 04:26:23;;;;;;;;;;;19.60;69.80;;;;;;4511857;31;20033;-73
2022/10/03 04:28:49;;;;;;;;;;;19.60;69.80;;;;;;4511913;31;20032;-73
2022/10/03 04:31:33;;;;;;;;;;;19.60;69.80;;;;;;4512380;31;20435;-73
2022/10/03 04:34:17;;;;;;;;;;;19.60;69.80;;;;;;4513534;31;20020;-73
2022/10/03 04:36:49;;;;;;;;;;;19.60;69.80;;;;;;4508874;31;20052;-72
2022/10/03 04:39:15;;;;;;;;;;;19.60;69.80;;;;;;4507823;31;20036;-73
2022/10/03 04:41:41;;;;;;;;;;;19.60;69.80;;;;;;4512903;31;20071;-72
2022/10/03 04:44:15;;;;;;;;;;;19.60;69.90;;;;;;4512403;31;20025;-72
2022/10/03 04:46:47;;;;;;;;;;;19.60;69.90;;;;;;4509648;31;20039;-72
2022/10/03 04:49:22;;;;;;;;;;;19.60;69.80;;;;;;4507015;31;20034;-72
2022/10/03 04:51:55;;;;;;;;;;;19.60;69.90;;;;;;4511623;31;20339;-73
2022/10/03 04:54:42;;;;;;;;;;;19.60;69.80;;;;;;4512897;31;20021;-72
2022/10/03 04:57:26;;;;;;;;;;;19.60;69.80;;;;;;4499506;31;20039;-72
2022/10/03 05:00:19;;;;;;;;;;;19.60;69.80;;;;;;4513736;31;20466;-73
2022/10/03 05:03:00;;;;;;;;;;;19.60;69.80;;;;;;4513993;31;20105;-72
2022/10/03 05:05:46;;;;;;;;;;;19.50;69.80;;;;;;4499548;31;20033;-72
2022/10/03 05:08:12;;;;;;;;;;;19.50;69.80;;;;;;4512472;31;20039;-72
2022/10/03 05:10:37;;;;;;;;;;;19.50;69.80;;;;;;4514478;31;20025;-72
2022/10/03 05:13:03;;;;;;;;;;;19.60;69.90;;;;;;4514294;31;20192;-72
2022/10/03 05:15:54;;;;;;;;;;;19.50;69.80;;;;;;4513643;31;20083;-72
2022/10/03 05:18:23;;;;;;;;;;;19.50;69.80;;;;;;4512264;31;20043;-72
2022/10/03 05:20:55;;;;;;;;;;;19.50;69.80;;;;;;4515277;31;20247;-72
2022/10/03 05:23:20;;;;;;;;;;;19.50;69.80;;;;;;4511937;31;20140;-72
2022/10/03 05:26:01;;;;;;;;;;;19.50;69.80;;;;;;4514635;31;20024;-73
2022/10/03 05:28:37;;;;;;;;;;;19.50;69.80;;;;;;4514730;31;20043;-72
2022/10/03 05:31:11;;;;;;;;;;;19.50;69.80;;;;;;4513299;31;20044;-73
2022/10/03 05:33:55;;;;;;;;;;;19.50;69.80;;;;;;4515442;31;20036;-73
2022/10/03 05:36:47;;;;;;;;;;;19.50;69.80;;;;;;4513253;31;20028;-72
2022/10/03 05:39:34;;;;;;;;;;;19.50;69.80;;;;;;4495821;31;20072;-72
2022/10/03 05:42:18;;;;;;;;;;;19.50;69.80;;;;;;4514197;31;20102;-72
2022/10/03 05:45:07;;;;;;;;;;;19.50;69.80;;;;;;4513491;31;20037;-72
2022/10/03 05:47:48;;;;;;;;;;;19.50;69.80;;;;;;4492840;31;20032;-73
2022/10/03 05:50:32;;;;;;;;;;;19.50;69.80;;;;;;4513477;31;20025;-72
2022/10/03 05:53:01;;;;;;;;;;;19.50;69.80;;;;;;4514360;31;20048;-72
2022/10/03 05:55:36;;;;;;;;;;;19.50;69.80;;;;;;4509294;31;20182;-73
2022/10/03 05:58:30;;;;;;;;;;;19.50;69.80;;;;;;4508915;31;20082;-73
2022/10/03 06:00:56;;;;;;;;;;;19.50;69.70;;;;;;4507816;31;20042;-73
2022/10/03 06:03:40;;;;;;;;;;;19.50;69.80;;;;;;4514946;31;20005;-73
2022/10/03 06:06:24;;;;;;;;;;;19.40;69.70;;;;;;4514156;31;20020;-72
2022/10/03 06:08:53;;;;;;;;;;;19.40;69.70;;;;;;4514464;31;20068;-72
2022/10/03 06:11:19;;;;;;;;;;;19.40;69.70;;;;;;4514530;31;20071;-72
2022/10/03 06:14:04;;;;;;;;;;;19.40;69.70;;;;;;4514422;31;20147;-73
2022/10/03 06:16:50;;;;;;;;;;;19.40;69.70;;;;;;4515104;31;20025;-72
2022/10/03 06:19:37;;;;;;;;;;;19.40;69.70;;;;;;4514077;31;20024;-72
2022/10/03 06:22:21;;;;;;;;;;;19.40;69.70;;;;;;4514132;31;20489;-73
2022/10/03 06:25:05;;;;;;;;;;;19.40;69.70;;;;;;4514880;31;20017;-73
2022/10/03 06:27:51;;;;;;;;;;;19.40;69.70;;;;;;4513762;31;20464;-72
2022/10/03 06:30:36;;;;;;;;;;;19.40;69.70;;;;;;4514530;31;20485;-73
2022/10/03 06:33:20;;;;;;;;;;;19.40;69.70;;;;;;4514315;31;20025;-72
2022/10/03 06:35:49;;;;;;;;;;;19.40;69.70;;;;;;4512580;31;20197;-72
2022/10/03 06:38:18;;;;;;;;;;;19.40;69.70;;;;;;4514799;31;20039;-72
2022/10/03 06:40:50;;;;;;;;;;;19.40;69.70;;;;;;4514063;31;20020;-72
2022/10/03 06:43:30;;;;;;;;;;;19.40;69.70;;;;;;4498400;31;20025;-72
2022/10/03 06:45:56;;;;;;;;;;;19.40;69.70;;;;;;4509570;31;20040;-72
2022/10/03 06:48:24;;;;;;;;;;;19.40;69.70;;;;;;4513722;31;20102;-72
2022/10/03 06:51:09;;;;;;;;;;;19.40;69.70;;;;;;4514371;31;20029;-72
2022/10/03 06:54:04;;;;;;;;;;;19.40;69.70;;;;;;4510054;31;20142;-72
2022/10/03 06:56:49;;;;;;;;;;;19.40;69.70;;;;;;4496034;31;20051;-73
2022/10/03 06:59:21;;;;;;;;;;;19.40;69.80;;;;;;4510869;31;20343;-73
2022/10/03 07:01:55;;;;;;;;;;;19.40;69.70;;;;;;4500795;31;20037;-74
2022/10/03 07:04:27;;;;;;;;;;;19.40;69.10;;;;;;4514008;31;20055;-74
2022/10/03 07:07:06;;;;;;;;;;;19.40;68.80;;;;;;4512578;31;20072;-74
2022/10/03 07:09:31;;;;;;;;;;;19.40;68.30;;;;;;4511527;31;20044;-74
2022/10/03 07:12:14;;;;;;;;;;;19.40;68.40;;;;;;4513390;31;20037;-72
2022/10/03 07:14:42;;;;;;;;;;;19.40;68.90;;;;;;4512282;31;20056;-74
2022/10/03 07:17:09;;;;;;;;;;;19.40;69.10;;;;;;4513092;31;20049;-75
2022/10/03 07:19:37;;;;;;;;;;;19.40;69.10;;;;;;4512325;31;20068;-73
2022/10/03 07:22:03;;;;;;;;;;;19.40;69.10;;;;;;4512559;31;20028;-73
2022/10/03 07:25:02;;;;;;;;;;;19.40;69.10;;;;;;4513334;31;20017;-74
2022/10/03 07:27:43;;;;;;;;;;;19.40;69.20;;;;;;4512253;31;20038;-73
2022/10/03 07:30:32;;;;;;;;;;;19.50;69.30;;;;;;4513092;31;20659;-75
2022/10/03 07:33:16;;;;;;;;;;;19.50;69.40;;;;;;4513359;31;20221;-74
2022/10/03 07:39:00;;;;;;;;;;;19.50;69.40;;;;;;4510599;31;20033;-74
2022/10/03 07:41:32;;;;;;;;;;;19.50;69.40;;;;;;4513382;31;20373;-69
2022/10/03 07:44:04;;;;;;;;;;;19.50;69.30;;;;;;4512914;31;20092;-74
2022/10/03 07:46:36;;;;;;;;;;;19.60;69.50;;;;;;4513777;31;20037;-74
2022/10/03 07:49:17;;;;;;;;;;;19.60;69.30;;;;;;4511817;31;20102;-74
2022/10/03 07:51:49;;;;;;;;;;;19.60;69.20;;;;;;4512813;31;20029;-70
2022/10/03 07:54:14;;;;;;;;;;;19.60;69.20;;;;;;4504465;31;20036;-68
2022/10/03 07:56:47;;;;;;;;;;;19.60;69.20;;;;;;4511727;31;20105;-68
2022/10/03 07:59:31;;;;;;;;;;;19.60;69.40;;;;;;4512447;31;20370;-70
2022/10/03 08:02:16;;;;;;;;;;;19.70;69.40;;;;;;4510304;31;20047;-69
2022/10/03 08:05:00;;;;;;;;;;;19.70;69.40;;;;;;4512404;31;20047;-69
2022/10/03 08:07:39;;;;;;;;;;;19.70;69.40;;;;;;4513223;31;20036;-68
2022/10/03 08:10:04;;;;;;;;;;;19.70;69.30;;;;;;4512421;31;20057;-67
2022/10/03 08:13:03;;;;;;;;;;;19.70;69.10;;;;;;4503694;31;20081;-68
2022/10/03 08:15:37;;;;;;;;;;;19.80;69.20;;;;;;4498800;31;20028;-70
2022/10/03 08:18:30;;;;;;;;;;;19.80;69.30;;;;;;4511702;31;20047;-70
2022/10/03 08:21:10;;;;;;;;;;;19.80;69.30;;;;;;4510976;31;20151;-69
2022/10/03 08:24:15;;;;;;;;;;;19.80;69.30;;;;;;4510516;31;20480;-70
2022/10/03 08:26:46;;;;;;;;;;;19.80;69.30;;;;;;4462434;32;20037;-68
2022/10/03 08:29:19;;;;;;;;;;;19.80;69.20;;;;;;4464332;32;20042;-68
2022/10/03 08:32:01;;;;;;;;;;;19.90;69.30;;;;;;4485888;31;20481;-68
2022/10/03 08:34:33;;;;;;;;;;;19.90;69.30;;;;;;4516161;31;20051;-68
2022/10/03 08:36:59;;;;;;;;;;;19.90;69.20;;;;;;4515143;31;20024;-68
2022/10/03 08:39:43;;;;;;;;;;;20.00;69.20;;;;;;4515129;31;20082;-67
2022/10/03 08:42:36;;;;;;;;;;;20.00;69.10;;;;;;4516072;31;20044;-70
2022/10/03 08:45:14;;;;;;;;;;;20.00;69.10;;;;;;4511164;31;20063;-70
2022/10/03 08:47:46;;;;;;;;;;;20.00;69.10;;;;;;4515228;31;20024;-68
2022/10/03 08:50:18;;;;;;;;;;;20.10;69.10;;;;;;4512752;31;20043;-69
2022/10/03 08:53:03;;;;;;;;;;;20.10;69.00;;;;;;4513422;31;20082;-71
2022/10/03 08:55:48;;;;;;;;;;;20.10;68.90;;;;;;4525764;31;20082;-69
2022/10/03 08:58:20;;;;;;;;;;;20.20;69.80;;;;;;4514928;31;20082;-69
2022/10/03 09:01:10;;;;;;;;;;;20.20;68.90;;;;;;4514648;31;20041;-69
2022/10/03 09:03:56;;;;;;;;;;;20.20;69.00;;;;;;4513084;31;20017;-68
2022/10/03 09:06:40;;;;;;;;;;;20.20;68.90;;;;;;4514753;31;20057;-68
2022/10/03 09:09:26;;;;;;;;;;;20.20;68.90;;;;;;4512651;31;20053;-69
2022/10/03 09:12:11;;;;;;;;;;;20.30;68.80;;;;;;4510319;31;20090;-69
2022/10/03 09:14:37;;;;;;;;;;;20.30;68.80;;;;;;4513971;31;20029;-68
2022/10/03 09:17:09;;;;;;;;;;;20.30;68.80;;;;;;4514243;31;20048;-68
2022/10/03 09:19:41;;;;;;;;;;;20.30;68.70;;;;;;4513137;31;20040;-69
2022/10/03 09:22:18;;;;;;;;;;;20.30;68.60;;;;;;4514188;31;20029;-67
2022/10/03 09:25:04;;;;;;;;;;;20.30;68.60;;;;;;4515278;31;20028;-68
2022/10/03 09:27:49;;;;;;;;;;;20.30;68.60;;;;;;4511293;31;20028;-68
2022/10/03 09:30:34;;;;;;;;;;;20.40;68.60;;;;;;4515200;31;20655;-65
2022/10/03 09:33:09;;;;;;;;;;;20.40;68.90;;;;;;4513749;31;20036;-68
2022/10/03 09:35:35;;;;;;;;;;;20.40;68.60;;;;;;4511307;31;20072;-68
2022/10/03 09:38:16;;;;;;;;;;;20.40;68.50;;;;;;4514033;31;20132;-68
2022/10/03 09:41:00;;;;;;;;;;;20.40;68.50;;;;;;4511941;31;20078;-69
2022/10/03 09:43:26;;;;;;;;;;;20.40;68.50;;;;;;4514018;31;20182;-69
2022/10/03 09:45:52;;;;;;;;;;;20.40;68.40;;;;;;4515139;31;20017;-69
2022/10/03 09:48:20;;;;;;;;;;;20.40;68.40;;;;;;4513321;31;20056;-69
2022/10/03 09:51:02;;;;;;;;;;;20.40;68.40;;;;;;4504640;31;20037;-69
2022/10/03 09:53:36;;;;;;;;;;;20.40;68.30;;;;;;4504911;31;20044;-69
2022/10/03 09:56:02;;;;;;;;;;;20.40;69.10;;;;;;4514688;31;20020;-70
2022/10/03 09:58:47;;;;;;;;;;;20.40;68.10;;;;;;4513668;31;20074;-69
2022/10/03 10:01:26;;;;;;;;;;;20.40;68.10;;;;;;4514033;31;20029;-70
2022/10/03 10:03:57;;;;;;;;;;;20.40;68.10;;;;;;4511575;31;20028;-69
2022/10/03 10:06:33;;;;;;;;;;;20.40;68.10;;;;;;4511417;31;20258;-69
2022/10/03 10:09:11;;;;;;;;;;;20.40;68.10;;;;;;4514663;31;20029;-70
2022/10/03 10:11:40;;;;;;;;;;;20.40;68.10;;;;;;4514750;31;20068;-69
2022/10/03 10:14:15;;;;;;;;;;;20.30;68.10;;;;;;4514004;31;20040;-71
2022/10/03 10:16:53;;;;;;;;;;;20.30;68.20;;;;;;4514945;31;20041;-70
2022/10/03 10:19:19;;;;;;;;;;;20.30;68.20;;;;;;4514546;31;20164;-72
2022/10/03 10:21:46;;;;;;;;;;;20.40;68.30;;;;;;4514055;31;20162;-70
2022/10/03 10:24:14;;;;;;;;;;;20.30;68.20;;;;;;4514752;31;20031;-69
2022/10/03 10:26:40;;;;;;;;;;;20.30;68.30;;;;;;4514029;31;20197;-70
2022/10/03 10:29:07;;;;;;;;;;;20.30;68.30;;;;;;4514501;31;20021;-70
2022/10/03 10:31:33;;;;;;;;;;;20.30;68.30;;;;;;4512686;31;20020;-69
2022/10/03 10:34:18;;;;;;;;;;;20.30;68.60;;;;;;4514263;31;20044;-68
2022/10/03 10:37:01;;;;;;;;;;;20.30;68.40;;;;;;4513222;31;20040;-68
2022/10/03 10:39:27;;;;;;;;;;;20.30;68.40;;;;;;4510561;31;20172;-69
2022/10/03 10:41:56;;;;;;;;;;;20.30;68.50;;;;;;4514409;31;20030;-69
2022/10/03 10:44:37;;;;;;;;;;;20.30;68.40;;;;;;4512118;31;20462;-68
2022/10/03 10:47:10;;;;;;;;;;;20.30;68.40;;;;;;4514117;31;20032;-69
2022/10/03 10:49:37;;;;;;;;;;;20.30;68.30;;;;;;4513127;31;20390;-70
2022/10/03 10:52:21;;;;;;;;;;;20.40;68.50;;;;;;4512720;31;20094;-70
2022/10/03 10:55:03;;;;;;;;;;;20.40;68.60;;;;;;4513482;31;20036;-70
2022/10/03 10:57:32;;;;;;;;;;;20.40;68.80;;;;;;4512384;31;20044;-69
2022/10/03 11:00:10;;;;;;;;;;;20.40;68.80;;;;;;4512387;31;20043;-68
2022/10/03 11:02:45;;;;;;;;;;;20.40;68.60;;;;;;4512442;31;20076;-70
2022/10/03 11:05:20;;;;;;;;;;;20.40;68.70;;;;;;4512621;31;20029;-69
2022/10/03 11:07:49;;;;;;;;;;;20.40;68.40;;;;;;4513838;31;20025;-69
2022/10/03 11:10:31;;;;;;;;;;;20.40;68.30;;;;;;4511511;31;20061;-70
2022/10/03 11:13:16;;;;;;;;;;;20.40;68.40;;;;;;4512091;31;20047;-71
2022/10/03 11:15:54;;;;;;;;;;;20.40;68.20;;;;;;4512165;31;20029;-69
2022/10/03 11:18:38;;;;;;;;;;;20.40;68.20;;;;;;4497190;31;20240;-71
2022/10/03 11:21:04;;;;;;;;;;;20.50;68.10;;;;;;4513064;31;20040;-68
2022/10/03 11:23:37;;;;;;;;;;;20.40;67.90;;;;;;4512239;31;20183;-69
2022/10/03 11:26:06;;;;;;;;;;;20.50;68.10;;;;;;4512389;31;20044;-69
2022/10/03 11:28:31;;;;;;;;;;;20.50;67.90;;;;;;4512508;31;20072;-69
2022/10/03 11:31:03;;;;;;;;;;;20.50;68.00;;;;;;4510656;31;20056;-68
2022/10/03 11:33:48;;;;;;;;;;;20.50;67.70;;;;;;4511766;31;20028;-67
2022/10/03 11:36:29;;;;;;;;;;;20.50;67.60;;;;;;4509229;31;20450;-68
2022/10/03 11:38:55;;;;;;;;;;;20.50;67.60;;;;;;4510725;31;20023;-68
2022/10/03 11:41:20;;;;;;;;;;;20.50;67.50;;;;;;4512729;31;20028;-68
2022/10/03 11:44:06;;;;;;;;;;;20.50;67.30;;;;;;4512182;31;20047;-69
2022/10/03 11:46:50;;;;;;;;;;;20.50;67.30;;;;;;4512476;31;20040;-68
2022/10/03 11:49:25;;;;;;;;;;;20.50;67.10;;;;;;4511908;31;20031;-68
2022/10/03 11:52:01;;;;;;;;;;;20.50;67.10;;;;;;4510860;31;20143;-66
2022/10/03 11:54:27;;;;;;;;;;;20.50;67.00;;;;;;4511423;31;20017;-67
2022/10/03 11:57:01;;;;;;;;;;;20.50;67.40;;;;;;4512586;31;20028;-67
2022/10/03 11:59:30;;;;;;;;;;;20.50;67.30;;;;;;4513483;31;20040;-66
2022/10/03 12:02:05;;;;;;;;;;;20.50;67.20;;;;;;4512581;31;20040;-67
2022/10/03 12:04:38;;;;;;;;;;;20.50;67.00;;;;;;4511533;31;20093;-67
2022/10/03 12:10:07;;;;;;;;;;;20.50;66.80;;;;;;4487061;31;20037;-66
2022/10/03 12:12:41;;;;;;;;;;;20.50;66.70;;;;;;4513020;31;20098;-66
2022/10/03 12:15:25;;;;;;;;;;;20.50;66.80;;;;;;4510157;31;20040;-66
2022/10/03 12:17:57;;;;;;;;;;;20.50;66.70;;;;;;4510368;31;20044;-66
2022/10/03 12:20:34;;;;;;;;;;;20.50;66.80;;;;;;4513170;31;20043;-65
2022/10/03 12:23:18;;;;;;;;;;;20.50;66.80;;;;;;4505376;31;20078;-66
2022/10/03 12:25:44;;;;;;;;;;;20.50;66.80;;;;;;4511964;31;20071;-66
2022/10/03 12:28:11;;;;;;;;;;;20.50;66.80;;;;;;4512040;31;20013;-66
2022/10/03 12:30:43;;;;;;;;;;;20.50;66.90;;;;;;4512303;31;20032;-66
2022/10/03 12:33:20;;;;;;;;;;;20.50;66.90;;;;;;4512164;31;20097;-66
2022/10/03 12:35:52;;;;;;;;;;;20.50;66.90;;;;;;4510779;31;20033;-66
2022/10/03 12:38:20;;;;;;;;;;;20.50;66.90;;;;;;4511181;31;20040;-66
2022/10/03 12:41:10;;;;;;;;;;;20.50;66.90;;;;;;4511608;31;20044;-66
2022/10/03 12:43:36;;;;;;;;;;;20.50;67.00;;;;;;4502851;31;20033;-66
2022/10/03 12:46:13;;;;;;;;;;;20.50;67.10;;;;;;4512064;31;20090;-66
2022/10/03 12:48:44;;;;;;;;;;;20.50;67.10;;;;;;4509639;31;20034;-66
2022/10/03 12:51:13;;;;;;;;;;;20.50;67.10;;;;;;4509929;31;20059;-66
2022/10/03 12:53:45;;;;;;;;;;;20.50;67.10;;;;;;4510352;31;20040;-66
2022/10/03 12:56:30;;;;;;;;;;;20.50;67.20;;;;;;4510286;31;20017;-65
2022/10/03 12:58:58;;;;;;;;;;;20.50;67.10;;;;;;4511183;31;20072;-66
2022/10/03 13:01:43;;;;;;;;;;;20.50;67.00;;;;;;4508701;31;20174;-66
2022/10/03 13:04:12;;;;;;;;;;;20.50;67.10;;;;;;4511505;31;20222;-66
2022/10/03 13:06:47;;;;;;;;;;;20.50;68.20;;;;;;4512148;31;20038;-67
2022/10/03 13:09:28;;;;;;;;;;;20.50;67.30;;;;;;4512287;31;20067;-67
2022/10/03 13:11:54;;;;;;;;;;;20.50;67.20;;;;;;4513075;31;20036;-67
2022/10/03 13:14:26;;;;;;;;;;;20.50;67.20;;;;;;4511847;31;20035;-67
2022/10/03 13:17:04;;;;;;;;;;;20.50;67.40;;;;;;4510635;31;20065;-67
2022/10/03 13:19:37;;;;;;;;;;;20.50;67.40;;;;;;4507860;31;20073;-68
2022/10/03 13:22:15;;;;;;;;;;;20.50;67.50;;;;;;4515149;31;20029;-67
2022/10/03 13:24:47;;;;;;;;;;;20.50;67.50;;;;;;4508936;31;20021;-67
2022/10/03 13:27:17;;;;;;;;;;;20.50;67.50;;;;;;4514638;31;20135;-67
2022/10/03 13:29:48;;;;;;;;;;;20.50;67.50;;;;;;4515632;31;20039;-67
2022/10/03 13:32:32;;;;;;;;;;;20.50;67.50;;;;;;4514965;31;20592;-67
2022/10/03 13:38:06;;;;;;;;;;;20.50;67.50;;;;;;4512229;31;20043;-66
2022/10/03 13:40:36;;;;;;;;;;;20.50;67.70;;;;;;4513876;31;20040;-67
2022/10/03 13:43:03;;;;;;;;;;;20.50;67.70;;;;;;4514529;31;20446;-66
2022/10/03 13:45:29;;;;;;;;;;;20.50;67.70;;;;;;4511869;31;20048;-67
2022/10/03 13:48:00;;;;;;;;;;;20.40;67.70;;;;;;4514258;31;20044;-66
2022/10/03 13:50:29;;;;;;;;;;;20.50;67.90;;;;;;4513998;31;20076;-67
2022/10/03 13:53:00;;;;;;;;;;;20.50;67.90;;;;;;4512020;31;20397;-66
2022/10/03 13:55:29;;;;;;;;;;;20.50;68.00;;;;;;4514813;31;20727;-66
2022/10/03 13:58:13;;;;;;;;;;;20.50;68.10;;;;;;4512292;31;20028;-65
2022/10/03 14:00:58;;;;;;;;;;;20.40;68.20;;;;;;4512618;31;20041;-67
2022/10/03 14:03:30;;;;;;;;;;;20.50;68.50;;;;;;4513880;31;20061;-65
2022/10/03 14:06:09;;;;;;;;;;;20.50;68.50;;;;;;4512397;31;20048;-68
2022/10/03 14:08:50;;;;;;;;;;;20.50;68.60;;;;;;4512554;31;20051;-65
2022/10/03 14:11:32;;;;;;;;;;;20.50;68.50;;;;;;4513698;31;20021;-65
2022/10/03 14:14:10;;;;;;;;;;;20.50;68.60;;;;;;4513243;31;20033;-65
2022/10/03 14:16:54;;;;;;;;;;;20.50;68.60;;;;;;4513554;31;20025;-65
2022/10/03 14:19:20;;;;;;;;;;;20.50;68.50;;;;;;4513426;31;20045;-66
2022/10/03 14:21:52;;;;;;;;;;;20.50;68.50;;;;;;4512814;31;20074;-65
2022/10/03 14:24:38;;;;;;;;;;;20.40;68.40;;;;;;4513686;31;20032;-65
2022/10/03 14:27:10;;;;;;;;;;;20.50;68.40;;;;;;4487247;31;20123;-67
2022/10/03 14:30:00;;;;;;;;;;;20.40;68.30;;;;;;4512325;31;20187;-66
2022/10/03 14:32:32;;;;;;;;;;;20.50;68.30;;;;;;4505905;31;20039;-66
2022/10/03 14:35:09;;;;;;;;;;;20.40;68.20;;;;;;4511124;31;20567;-66
2022/10/03 14:37:38;;;;;;;;;;;20.40;68.10;;;;;;4513797;31;20444;-66
2022/10/03 14:40:26;;;;;;;;;;;20.40;68.00;;;;;;4512948;31;20032;-67
2022/10/03 14:43:05;;;;;;;;;;;20.40;68.10;;;;;;4512107;31;20060;-68
2022/10/03 14:45:40;;;;;;;;;;;20.40;68.10;;;;;;4513164;31;20058;-67
2022/10/03 14:48:11;;;;;;;;;;;20.40;68.10;;;;;;4507364;31;20049;-67
2022/10/03 14:50:38;;;;;;;;;;;20.40;68.10;;;;;;4513912;31;20033;-68
2022/10/03 14:53:13;;;;;;;;;;;20.40;68.20;;;;;;4513413;31;20040;-68
2022/10/03 14:55:43;;;;;;;;;;;20.40;68.20;;;;;;4512151;31;20072;-68
2022/10/03 14:58:27;;;;;;;;;;;20.40;68.20;;;;;;4513009;31;20056;-68
2022/10/03 15:01:06;;;;;;;;;;;20.40;68.10;;;;;;4512713;31;20073;-69
2022/10/03 15:03:36;;;;;;;;;;;20.40;68.20;;;;;;4513007;31;20020;-67
2022/10/03 15:06:05;;;;;;;;;;;20.40;68.30;;;;;;4509490;31;20035;-68
2022/10/03 15:08:42;;;;;;;;;;;20.40;68.30;;;;;;4511622;31;20047;-67
2022/10/03 15:11:09;;;;;;;;;;;20.40;68.20;;;;;;4509525;31;20158;-66
2022/10/03 15:13:41;;;;;;;;;;;20.40;68.30;;;;;;4510007;31;20036;-68
2022/10/03 15:16:08;;;;;;;;;;;20.40;68.20;;;;;;4510920;31;20039;-68
2022/10/03 15:18:35;;;;;;;;;;;20.40;68.10;;;;;;4511996;31;20142;-67
2022/10/03 15:21:01;;;;;;;;;;;20.40;68.20;;;;;;4511519;31;20064;-67